Terminal Aerodrome Forecast
Issued by NWS Grand Forks, ND

Home | Current Version | Previous Version | Text Only | Print | Product List | Glossary On
Versions: 1 2 3 4 5 6 7 8 9 10 11 12
000
FTUS43 KFGF 191132
TAFFAR
TAF
KFAR 191132Z 1912/2012 11010KT P6SM BKN090
     FM191500 12012KT P6SM BKN060
     FM192100 12015KT P6SM BKN090
     FM200400 14012KT 3SM BR SCT015 BKN030=

USA.gov is the U.S. government's official web portal to all federal, state and local government web resources and services.